sensor_id;sensor_type;location;lat;lon;timestamp;P1;durP1;ratioP1;P2;durP2;ratioP2
47381;SDS011;33128;51.580;5.170;2023-02-27T00:01:59;22.75;;;21.75;;
47381;SDS011;33128;51.580;5.170;2023-02-27T00:04:25;22.13;;;21.23;;
47381;SDS011;33128;51.580;5.170;2023-02-27T00:06:51;21.83;;;20.77;;
47381;SDS011;33128;51.580;5.170;2023-02-27T00:09:16;21.48;;;20.67;;
47381;SDS011;33128;51.580;5.170;2023-02-27T00:11:42;22.13;;;20.80;;
47381;SDS011;33128;51.580;5.170;2023-02-27T00:14:08;22.25;;;21.35;;
47381;SDS011;33128;51.580;5.170;2023-02-27T00:16:34;22.70;;;21.60;;
47381;SDS011;33128;51.580;5.170;2023-02-27T00:18:59;21.60;;;20.60;;
47381;SDS011;33128;51.580;5.170;2023-02-27T00:21:29;22.60;;;21.60;;
47381;SDS011;33128;51.580;5.170;2023-02-27T00:23:55;21.83;;;20.80;;
47381;SDS011;33128;51.580;5.170;2023-02-27T00:26:21;21.67;;;20.88;;
47381;SDS011;33128;51.580;5.170;2023-02-27T00:28:47;23.13;;;22.33;;
47381;SDS011;33128;51.580;5.170;2023-02-27T00:31:12;22.50;;;21.60;;
47381;SDS011;33128;51.580;5.170;2023-02-27T00:33:38;23.63;;;22.63;;
47381;SDS011;33128;51.580;5.170;2023-02-27T00:36:04;23.25;;;22.35;;
47381;SDS011;33128;51.580;5.170;2023-02-27T00:38:29;23.42;;;22.52;;
47381;SDS011;33128;51.580;5.170;2023-02-27T00:40:55;24.15;;;22.92;;
47381;SDS011;33128;51.580;5.170;2023-02-27T00:43:21;23.45;;;22.60;;
47381;SDS011;33128;51.580;5.170;2023-02-27T00:45:47;23.85;;;22.75;;
47381;SDS011;33128;51.580;5.170;2023-02-27T00:48:13;23.67;;;22.67;;
47381;SDS011;33128;51.580;5.170;2023-02-27T00:50:39;22.73;;;21.85;;
47381;SDS011;33128;51.580;5.170;2023-02-27T00:53:04;22.88;;;22.02;;
47381;SDS011;33128;51.580;5.170;2023-02-27T00:55:30;21.13;;;20.33;;
47381;SDS011;33128;51.580;5.170;2023-02-27T00:57:56;24.27;;;23.08;;
47381;SDS011;33128;51.580;5.170;2023-02-27T01:00:21;22.08;;;21.27;;
47381;SDS011;33128;51.580;5.170;2023-02-27T01:02:47;21.15;;;20.35;;
47381;SDS011;33128;51.580;5.170;2023-02-27T01:05:13;22.30;;;21.27;;
47381;SDS011;33128;51.580;5.170;2023-02-27T01:07:38;21.90;;;21.10;;
47381;SDS011;33128;51.580;5.170;2023-02-27T01:10:04;22.08;;;21.20;;
47381;SDS011;33128;51.580;5.170;2023-02-27T01:12:31;22.17;;;21.23;;
47381;SDS011;33128;51.580;5.170;2023-02-27T01:14:57;22.20;;;21.35;;
47381;SDS011;33128;51.580;5.170;2023-02-27T01:17:23;21.98;;;21.17;;
47381;SDS011;33128;51.580;5.170;2023-02-27T01:19:49;21.45;;;20.20;;
47381;SDS011;33128;51.580;5.170;2023-02-27T01:22:14;22.45;;;21.55;;
47381;SDS011;33128;51.580;5.170;2023-02-27T01:24:40;21.70;;;20.73;;
47381;SDS011;33128;51.580;5.170;2023-02-27T01:27:05;22.70;;;21.80;;
47381;SDS011;33128;51.580;5.170;2023-02-27T01:29:31;23.42;;;22.52;;
47381;SDS011;33128;51.580;5.170;2023-02-27T01:31:57;23.45;;;22.42;;
47381;SDS011;33128;51.580;5.170;2023-02-27T01:34:22;23.23;;;22.25;;
47381;SDS011;33128;51.580;5.170;2023-02-27T01:36:48;22.48;;;21.48;;
47381;SDS011;33128;51.580;5.170;2023-02-27T01:39:13;21.80;;;20.92;;
47381;SDS011;33128;51.580;5.170;2023-02-27T01:41:39;22.40;;;21.40;;
47381;SDS011;33128;51.580;5.170;2023-02-27T01:44:06;22.40;;;21.58;;
47381;SDS011;33128;51.580;5.170;2023-02-27T01:46:34;22.80;;;21.90;;
47381;SDS011;33128;51.580;5.170;2023-02-27T01:49:03;22.20;;;21.40;;
47381;SDS011;33128;51.580;5.170;2023-02-27T01:51:40;22.83;;;21.70;;
47381;SDS011;33128;51.580;5.170;2023-02-27T01:54:10;22.50;;;21.70;;
47381;SDS011;33128;51.580;5.170;2023-02-27T01:56:37;22.88;;;21.98;;
47381;SDS011;33128;51.580;5.170;2023-02-27T01:59:06;22.92;;;22.02;;
47381;SDS011;33128;51.580;5.170;2023-02-27T02:01:34;22.70;;;21.70;;
47381;SDS011;33128;51.580;5.170;2023-02-27T02:06:39;23.27;;;22.38;;
47381;SDS011;33128;51.580;5.170;2023-02-27T02:09:08;23.40;;;22.45;;
47381;SDS011;33128;51.580;5.170;2023-02-27T02:11:35;23.38;;;22.48;;
47381;SDS011;33128;51.580;5.170;2023-02-27T02:14:02;23.63;;;22.73;;
47381;SDS011;33128;51.580;5.170;2023-02-27T02:19:04;23.88;;;22.98;;
47381;SDS011;33128;51.580;5.170;2023-02-27T02:30:31;23.23;;;22.33;;
47381;SDS011;33128;51.580;5.170;2023-02-27T03:00:40;22.45;;;21.55;;
47381;SDS011;33128;51.580;5.170;2023-02-27T03:03:27;23.17;;;22.17;;
47381;SDS011;33128;51.580;5.170;2023-02-27T03:05:59;23.67;;;22.77;;
47381;SDS011;33128;51.580;5.170;2023-02-27T03:08:35;23.10;;;22.20;;
47381;SDS011;33128;51.580;5.170;2023-02-27T03:11:06;21.65;;;20.85;;
47381;SDS011;33128;51.580;5.170;2023-02-27T03:13:34;21.50;;;20.13;;
47381;SDS011;33128;51.580;5.170;2023-02-27T03:16:05;22.35;;;21.55;;
47381;SDS011;33128;51.580;5.170;2023-02-27T03:18:38;23.02;;;22.02;;
47381;SDS011;33128;51.580;5.170;2023-02-27T03:21:17;21.95;;;20.90;;
47381;SDS011;33128;51.580;5.170;2023-02-27T03:23:55;20.50;;;19.70;;
47381;SDS011;33128;51.580;5.170;2023-02-27T03:28:56;22.70;;;21.73;;
47381;SDS011;33128;51.580;5.170;2023-02-27T03:31:36;21.75;;;20.85;;
47381;SDS011;33128;51.580;5.170;2023-02-27T03:34:20;23.42;;;22.15;;
47381;SDS011;33128;51.580;5.170;2023-02-27T03:45:04;22.48;;;21.67;;
47381;SDS011;33128;51.580;5.170;2023-02-27T03:47:47;22.30;;;21.38;;
47381;SDS011;33128;51.580;5.170;2023-02-27T03:50:13;22.65;;;21.65;;
47381;SDS011;33128;51.580;5.170;2023-02-27T03:52:39;22.50;;;21.50;;
47381;SDS011;33128;51.580;5.170;2023-02-27T03:55:08;23.40;;;21.83;;
47381;SDS011;33128;51.580;5.170;2023-02-27T03:57:45;22.75;;;21.85;;
47381;SDS011;33128;51.580;5.170;2023-02-27T04:00:15;23.13;;;22.13;;
47381;SDS011;33128;51.580;5.170;2023-02-27T04:02:42;19.77;;;19.08;;
47381;SDS011;33128;51.580;5.170;2023-02-27T04:05:09;21.88;;;20.98;;
47381;SDS011;33128;51.580;5.170;2023-02-27T04:13:26;22.38;;;21.48;;
47381;SDS011;33128;51.580;5.170;2023-02-27T04:16:26;21.30;;;20.50;;
47381;SDS011;33128;51.580;5.170;2023-02-27T04:24:34;19.83;;;19.13;;
47381;SDS011;33128;51.580;5.170;2023-02-27T04:35:48;20.75;;;19.83;;
47381;SDS011;33128;51.580;5.170;2023-02-27T04:38:25;19.90;;;19.20;;
47381;SDS011;33128;51.580;5.170;2023-02-27T04:40:56;20.35;;;19.40;;
47381;SDS011;33128;51.580;5.170;2023-02-27T04:43:28;19.10;;;18.33;;
47381;SDS011;33128;51.580;5.170;2023-02-27T04:45:55;17.42;;;16.83;;
47381;SDS011;33128;51.580;5.170;2023-02-27T04:48:28;18.65;;;17.83;;
47381;SDS011;33128;51.580;5.170;2023-02-27T04:51:12;18.67;;;17.98;;
47381;SDS011;33128;51.580;5.170;2023-02-27T04:53:46;19.25;;;18.25;;
47381;SDS011;33128;51.580;5.170;2023-02-27T04:56:33;17.75;;;17.10;;
47381;SDS011;33128;51.580;5.170;2023-02-27T04:59:05;18.38;;;17.67;;
47381;SDS011;33128;51.580;5.170;2023-02-27T05:01:35;18.05;;;17.30;;
47381;SDS011;33128;51.580;5.170;2023-02-27T05:04:10;19.08;;;17.95;;
47381;SDS011;33128;51.580;5.170;2023-02-27T05:06:40;17.70;;;17.10;;
47381;SDS011;33128;51.580;5.170;2023-02-27T05:12:03;17.83;;;17.13;;
47381;SDS011;33128;51.580;5.170;2023-02-27T05:14:43;19.08;;;17.83;;
47381;SDS011;33128;51.580;5.170;2023-02-27T05:17:33;17.67;;;16.98;;
47381;SDS011;33128;51.580;5.170;2023-02-27T05:20:05;18.65;;;17.42;;
47381;SDS011;33128;51.580;5.170;2023-02-27T05:25:26;16.45;;;15.85;;
47381;SDS011;33128;51.580;5.170;2023-02-27T05:27:57;18.27;;;17.38;;
47381;SDS011;33128;51.580;5.170;2023-02-27T05:33:06;18.27;;;17.50;;
47381;SDS011;33128;51.580;5.170;2023-02-27T05:35:37;17.20;;;16.50;;
47381;SDS011;33128;51.580;5.170;2023-02-27T05:41:03;18.10;;;17.33;;
47381;SDS011;33128;51.580;5.170;2023-02-27T05:43:33;18.25;;;17.55;;
47381;SDS011;33128;51.580;5.170;2023-02-27T05:46:28;16.35;;;15.70;;
47381;SDS011;33128;51.580;5.170;2023-02-27T05:48:58;16.65;;;15.95;;
47381;SDS011;33128;51.580;5.170;2023-02-27T05:51:29;17.27;;;16.48;;
47381;SDS011;33128;51.580;5.170;2023-02-27T05:53:59;16.88;;;16.27;;
47381;SDS011;33128;51.580;5.170;2023-02-27T05:56:30;16.88;;;16.17;;
47381;SDS011;33128;51.580;5.170;2023-02-27T05:59:11;16.85;;;16.25;;
47381;SDS011;33128;51.580;5.170;2023-02-27T06:01:42;15.90;;;15.30;;
47381;SDS011;33128;51.580;5.170;2023-02-27T06:04:08;16.88;;;16.17;;
47381;SDS011;33128;51.580;5.170;2023-02-27T06:06:34;17.33;;;16.42;;
47381;SDS011;33128;51.580;5.170;2023-02-27T06:09:00;17.98;;;17.08;;
47381;SDS011;33128;51.580;5.170;2023-02-27T06:11:26;16.10;;;15.50;;
47381;SDS011;33128;51.580;5.170;2023-02-27T06:13:52;18.45;;;17.67;;
47381;SDS011;33128;51.580;5.170;2023-02-27T06:16:18;16.70;;;16.10;;
47381;SDS011;33128;51.580;5.170;2023-02-27T06:18:43;16.10;;;15.40;;
47381;SDS011;33128;51.580;5.170;2023-02-27T06:21:09;15.65;;;15.00;;
47381;SDS011;33128;51.580;5.170;2023-02-27T06:23:36;15.23;;;14.52;;
47381;SDS011;33128;51.580;5.170;2023-02-27T06:26:02;15.80;;;15.20;;
47381;SDS011;33128;51.580;5.170;2023-02-27T06:28:28;16.83;;;16.13;;
47381;SDS011;33128;51.580;5.170;2023-02-27T06:30:54;16.65;;;15.95;;
47381;SDS011;33128;51.580;5.170;2023-02-27T06:33:21;16.50;;;15.90;;
47381;SDS011;33128;51.580;5.170;2023-02-27T06:35:47;17.10;;;16.33;;
47381;SDS011;33128;51.580;5.170;2023-02-27T06:38:13;14.45;;;13.85;;
47381;SDS011;33128;51.580;5.170;2023-02-27T06:40:39;14.88;;;14.35;;
47381;SDS011;33128;51.580;5.170;2023-02-27T06:43:04;17.00;;;16.10;;
47381;SDS011;33128;51.580;5.170;2023-02-27T06:45:30;14.38;;;13.88;;
47381;SDS011;33128;51.580;5.170;2023-02-27T06:47:55;15.85;;;15.10;;
47381;SDS011;33128;51.580;5.170;2023-02-27T06:50:21;15.10;;;14.20;;
47381;SDS011;33128;51.580;5.170;2023-02-27T06:52:47;17.08;;;16.20;;
47381;SDS011;33128;51.580;5.170;2023-02-27T06:55:12;17.58;;;16.67;;
47381;SDS011;33128;51.580;5.170;2023-02-27T06:57:43;16.65;;;15.48;;
47381;SDS011;33128;51.580;5.170;2023-02-27T07:00:10;16.95;;;16.15;;
47381;SDS011;33128;51.580;5.170;2023-02-27T07:02:36;15.57;;;14.75;;
47381;SDS011;33128;51.580;5.170;2023-02-27T07:05:02;15.30;;;14.68;;
47381;SDS011;33128;51.580;5.170;2023-02-27T07:07:28;16.63;;;15.82;;
47381;SDS011;33128;51.580;5.170;2023-02-27T07:09:57;15.30;;;14.60;;
47381;SDS011;33128;51.580;5.170;2023-02-27T07:12:26;15.57;;;14.82;;
47381;SDS011;33128;51.580;5.170;2023-02-27T07:14:53;16.00;;;15.40;;
47381;SDS011;33128;51.580;5.170;2023-02-27T07:17:19;15.25;;;14.55;;
47381;SDS011;33128;51.580;5.170;2023-02-27T07:19:46;15.80;;;15.20;;
47381;SDS011;33128;51.580;5.170;2023-02-27T07:22:12;17.65;;;16.02;;
47381;SDS011;33128;51.580;5.170;2023-02-27T07:24:38;16.65;;;15.90;;
47381;SDS011;33128;51.580;5.170;2023-02-27T07:27:03;16.23;;;15.43;;
47381;SDS011;33128;51.580;5.170;2023-02-27T07:29:29;15.88;;;15.02;;
47381;SDS011;33128;51.580;5.170;2023-02-27T07:31:55;15.35;;;14.75;;
47381;SDS011;33128;51.580;5.170;2023-02-27T07:34:20;16.25;;;15.48;;
47381;SDS011;33128;51.580;5.170;2023-02-27T07:36:46;16.60;;;16.00;;
47381;SDS011;33128;51.580;5.170;2023-02-27T07:39:16;15.35;;;14.85;;
47381;SDS011;33128;51.580;5.170;2023-02-27T07:41:42;14.43;;;13.93;;
47381;SDS011;33128;51.580;5.170;2023-02-27T07:44:10;15.38;;;14.68;;
47381;SDS011;33128;51.580;5.170;2023-02-27T07:46:38;14.90;;;14.20;;
47381;SDS011;33128;51.580;5.170;2023-02-27T07:49:04;15.25;;;14.65;;
47381;SDS011;33128;51.580;5.170;2023-02-27T07:51:29;15.50;;;14.90;;
47381;SDS011;33128;51.580;5.170;2023-02-27T07:53:56;15.43;;;14.77;;
47381;SDS011;33128;51.580;5.170;2023-02-27T07:56:25;16.45;;;15.52;;
47381;SDS011;33128;51.580;5.170;2023-02-27T07:58:50;14.55;;;13.95;;
47381;SDS011;33128;51.580;5.170;2023-02-27T08:01:19;17.77;;;16.63;;
47381;SDS011;33128;51.580;5.170;2023-02-27T08:03:45;14.40;;;13.63;;
47381;SDS011;33128;51.580;5.170;2023-02-27T08:06:11;14.35;;;13.65;;
47381;SDS011;33128;51.580;5.170;2023-02-27T08:08:36;14.63;;;13.93;;
47381;SDS011;33128;51.580;5.170;2023-02-27T08:11:02;16.38;;;15.68;;
47381;SDS011;33128;51.580;5.170;2023-02-27T08:13:28;18.10;;;17.38;;
47381;SDS011;33128;51.580;5.170;2023-02-27T08:15:53;72.57;;;69.13;;
47381;SDS011;33128;51.580;5.170;2023-02-27T08:18:19;432.75;;;404.45;;
47381;SDS011;33128;51.580;5.170;2023-02-27T08:20:45;472.90;;;438.33;;
47381;SDS011;33128;51.580;5.170;2023-02-27T08:23:11;32.13;;;30.40;;
47381;SDS011;33128;51.580;5.170;2023-02-27T08:25:37;14.35;;;13.50;;
47381;SDS011;33128;51.580;5.170;2023-02-27T08:28:03;28.65;;;27.02;;
47381;SDS011;33128;51.580;5.170;2023-02-27T08:30:29;14.82;;;14.02;;
47381;SDS011;33128;51.580;5.170;2023-02-27T08:32:54;15.27;;;14.48;;
47381;SDS011;33128;51.580;5.170;2023-02-27T08:35:20;46.15;;;43.92;;
47381;SDS011;33128;51.580;5.170;2023-02-27T08:37:47;100.25;;;92.38;;
47381;SDS011;33128;51.580;5.170;2023-02-27T08:40:13;67.45;;;64.03;;
47381;SDS011;33128;51.580;5.170;2023-02-27T08:42:40;27.50;;;25.70;;
47381;SDS011;33128;51.580;5.170;2023-02-27T08:45:07;24.77;;;23.55;;
47381;SDS011;33128;51.580;5.170;2023-02-27T08:47:33;35.20;;;33.20;;
47381;SDS011;33128;51.580;5.170;2023-02-27T08:49:59;40.58;;;38.53;;
47381;SDS011;33128;51.580;5.170;2023-02-27T08:52:25;58.25;;;55.00;;
47381;SDS011;33128;51.580;5.170;2023-02-27T08:54:50;34.42;;;32.70;;
47381;SDS011;33128;51.580;5.170;2023-02-27T08:57:16;279.98;;;262.20;;
47381;SDS011;33128;51.580;5.170;2023-02-27T08:59:41;156.38;;;146.55;;
47381;SDS011;33128;51.580;5.170;2023-02-27T09:02:10;98.03;;;91.53;;
47381;SDS011;33128;51.580;5.170;2023-02-27T09:04:36;412.20;;;384.95;;
47381;SDS011;33128;51.580;5.170;2023-02-27T09:07:01;561.80;;;518.28;;
47381;SDS011;33128;51.580;5.170;2023-02-27T09:09:27;543.38;;;500.85;;
47381;SDS011;33128;51.580;5.170;2023-02-27T09:11:52;437.75;;;408.80;;
47381;SDS011;33128;51.580;5.170;2023-02-27T09:14:20;517.00;;;482.60;;
47381;SDS011;33128;51.580;5.170;2023-02-27T09:16:46;445.17;;;415.70;;
47381;SDS011;33128;51.580;5.170;2023-02-27T09:19:12;286.13;;;268.20;;
47381;SDS011;33128;51.580;5.170;2023-02-27T09:21:40;338.25;;;316.70;;
47381;SDS011;33128;51.580;5.170;2023-02-27T09:24:06;166.18;;;157.05;;
47381;SDS011;33128;51.580;5.170;2023-02-27T09:26:33;223.88;;;210.65;;
47381;SDS011;33128;51.580;5.170;2023-02-27T09:28:58;317.90;;;298.33;;
47381;SDS011;33128;51.580;5.170;2023-02-27T09:31:24;298.00;;;279.70;;
47381;SDS011;33128;51.580;5.170;2023-02-27T09:33:50;313.90;;;293.80;;
47381;SDS011;33128;51.580;5.170;2023-02-27T09:36:15;357.80;;;334.20;;
47381;SDS011;33128;51.580;5.170;2023-02-27T09:38:41;62.88;;;59.53;;
47381;SDS011;33128;51.580;5.170;2023-02-27T09:41:16;365.35;;;339.70;;
47381;SDS011;33128;51.580;5.170;2023-02-27T09:43:53;609.20;;;568.65;;
47381;SDS011;33128;51.580;5.170;2023-02-27T09:46:19;454.80;;;422.83;;
47381;SDS011;33128;51.580;5.170;2023-02-27T09:48:49;542.00;;;503.35;;
47381;SDS011;33128;51.580;5.170;2023-02-27T09:51:17;502.90;;;469.20;;
47381;SDS011;33128;51.580;5.170;2023-02-27T09:53:45;225.75;;;212.98;;
47381;SDS011;33128;51.580;5.170;2023-02-27T09:56:22;127.20;;;120.43;;
47381;SDS011;33128;51.580;5.170;2023-02-27T09:59:00;133.73;;;126.82;;
47381;SDS011;33128;51.580;5.170;2023-02-27T10:01:30;169.13;;;157.45;;
47381;SDS011;33128;51.580;5.170;2023-02-27T10:12:33;512.95;;;479.27;;
47381;SDS011;33128;51.580;5.170;2023-02-27T10:15:42;329.58;;;309.00;;
47381;SDS011;33128;51.580;5.170;2023-02-27T10:18:16;161.00;;;152.40;;
47381;SDS011;33128;51.580;5.170;2023-02-27T10:20:53;540.83;;;504.60;;
47381;SDS011;33128;51.580;5.170;2023-02-27T10:23:21;693.38;;;643.05;;
47381;SDS011;33128;51.580;5.170;2023-02-27T10:25:55;699.97;;;652.05;;
47381;SDS011;33128;51.580;5.170;2023-02-27T10:28:22;346.02;;;324.02;;
47381;SDS011;33128;51.580;5.170;2023-02-27T10:30:51;566.55;;;513.55;;
47381;SDS011;33128;51.580;5.170;2023-02-27T10:33:35;180.57;;;169.98;;
47381;SDS011;33128;51.580;5.170;2023-02-27T10:36:03;563.58;;;512.13;;
47381;SDS011;33128;51.580;5.170;2023-02-27T10:38:37;572.10;;;526.70;;
47381;SDS011;33128;51.580;5.170;2023-02-27T10:41:09;584.33;;;536.03;;
47381;SDS011;33128;51.580;5.170;2023-02-27T10:43:37;298.92;;;278.92;;
47381;SDS011;33128;51.580;5.170;2023-02-27T10:46:14;217.30;;;203.65;;
47381;SDS011;33128;51.580;5.170;2023-02-27T10:48:43;253.70;;;237.05;;
47381;SDS011;33128;51.580;5.170;2023-02-27T10:59:35;544.00;;;493.67;;
47381;SDS011;33128;51.580;5.170;2023-02-27T11:02:18;292.20;;;272.92;;
47381;SDS011;33128;51.580;5.170;2023-02-27T11:04:53;470.98;;;429.45;;
47381;SDS011;33128;51.580;5.170;2023-02-27T11:07:28;392.42;;;361.30;;
47381;SDS011;33128;51.580;5.170;2023-02-27T11:09:57;565.10;;;516.90;;
47381;SDS011;33128;51.580;5.170;2023-02-27T11:12:41;313.35;;;292.65;;
47381;SDS011;33128;51.580;5.170;2023-02-27T11:15:21;264.20;;;246.23;;
47381;SDS011;33128;51.580;5.170;2023-02-27T11:17:49;240.05;;;225.05;;
47381;SDS011;33128;51.580;5.170;2023-02-27T11:20:32;366.88;;;341.95;;
47381;SDS011;33128;51.580;5.170;2023-02-27T11:23:04;393.00;;;365.13;;
47381;SDS011;33128;51.580;5.170;2023-02-27T11:25:39;387.90;;;359.75;;
47381;SDS011;33128;51.580;5.170;2023-02-27T11:28:25;496.08;;;459.67;;
47381;SDS011;33128;51.580;5.170;2023-02-27T11:31:03;467.10;;;432.05;;
47381;SDS011;33128;51.580;5.170;2023-02-27T11:33:38;286.27;;;265.30;;
47381;SDS011;33128;51.580;5.170;2023-02-27T11:36:12;572.97;;;532.38;;
47381;SDS011;33128;51.580;5.170;2023-02-27T11:38:38;631.28;;;577.72;;
47381;SDS011;33128;51.580;5.170;2023-02-27T11:41:04;323.05;;;301.00;;
47381;SDS011;33128;51.580;5.170;2023-02-27T11:43:33;269.02;;;250.93;;
47381;SDS011;33128;51.580;5.170;2023-02-27T11:46:09;225.27;;;207.50;;
47381;SDS011;33128;51.580;5.170;2023-02-27T11:48:40;560.60;;;519.45;;
47381;SDS011;33128;51.580;5.170;2023-02-27T11:54:04;462.83;;;429.83;;
47381;SDS011;33128;51.580;5.170;2023-02-27T11:56:40;128.25;;;119.53;;
47381;SDS011;33128;51.580;5.170;2023-02-27T12:01:45;53.72;;;50.15;;
47381;SDS011;33128;51.580;5.170;2023-02-27T12:04:39;409.52;;;381.17;;
47381;SDS011;33128;51.580;5.170;2023-02-27T12:07:18;390.13;;;363.92;;
47381;SDS011;33128;51.580;5.170;2023-02-27T12:13:03;715.97;;;663.67;;
47381;SDS011;33128;51.580;5.170;2023-02-27T12:15:30;301.45;;;280.65;;
47381;SDS011;33128;51.580;5.170;2023-02-27T12:18:43;398.48;;;370.65;;
47381;SDS011;33128;51.580;5.170;2023-02-27T12:21:18;528.05;;;486.10;;
47381;SDS011;33128;51.580;5.170;2023-02-27T12:26:36;12.63;;;12.02;;
47381;SDS011;33128;51.580;5.170;2023-02-27T12:35:27;14.23;;;13.38;;
47381;SDS011;33128;51.580;5.170;2023-02-27T12:37:55;14.40;;;13.43;;
47381;SDS011;33128;51.580;5.170;2023-02-27T12:40:28;102.68;;;96.95;;
47381;SDS011;33128;51.580;5.170;2023-02-27T12:46:20;42.22;;;39.88;;
47381;SDS011;33128;51.580;5.170;2023-02-27T12:54:09;29.23;;;27.73;;
47381;SDS011;33128;51.580;5.170;2023-02-27T12:57:00;337.05;;;317.67;;
47381;SDS011;33128;51.580;5.170;2023-02-27T13:02:36;46.22;;;43.08;;
47381;SDS011;33128;51.580;5.170;2023-02-27T13:05:17;177.30;;;165.88;;
47381;SDS011;33128;51.580;5.170;2023-02-27T13:10:48;375.35;;;348.80;;
47381;SDS011;33128;51.580;5.170;2023-02-27T13:13:17;472.52;;;436.98;;
47381;SDS011;33128;51.580;5.170;2023-02-27T13:15:53;274.75;;;255.82;;
47381;SDS011;33128;51.580;5.170;2023-02-27T13:21:01;292.98;;;272.65;;
47381;SDS011;33128;51.580;5.170;2023-02-27T13:26:26;408.13;;;378.67;;
47381;SDS011;33128;51.580;5.170;2023-02-27T13:28:56;139.95;;;131.63;;
47381;SDS011;33128;51.580;5.170;2023-02-27T13:36:44;286.77;;;266.27;;
47381;SDS011;33128;51.580;5.170;2023-02-27T13:44:51;559.22;;;517.63;;
47381;SDS011;33128;51.580;5.170;2023-02-27T13:50:03;52.30;;;49.15;;
47381;SDS011;33128;51.580;5.170;2023-02-27T13:52:41;127.72;;;120.18;;
47381;SDS011;33128;51.580;5.170;2023-02-27T13:57:59;365.15;;;340.00;;
47381;SDS011;33128;51.580;5.170;2023-02-27T14:00:30;256.67;;;239.27;;
47381;SDS011;33128;51.580;5.170;2023-02-27T14:03:04;305.42;;;284.30;;
47381;SDS011;33128;51.580;5.170;2023-02-27T14:05:43;460.98;;;425.00;;
47381;SDS011;33128;51.580;5.170;2023-02-27T14:08:15;278.38;;;258.90;;
47381;SDS011;33128;51.580;5.170;2023-02-27T14:19:01;241.80;;;225.50;;
47381;SDS011;33128;51.580;5.170;2023-02-27T14:24:39;286.13;;;265.75;;
47381;SDS011;33128;51.580;5.170;2023-02-27T14:27:17;623.45;;;573.20;;
47381;SDS011;33128;51.580;5.170;2023-02-27T14:29:50;151.63;;;142.00;;
47381;SDS011;33128;51.580;5.170;2023-02-27T14:32:22;62.15;;;58.40;;
47381;SDS011;33128;51.580;5.170;2023-02-27T14:34:49;226.48;;;211.13;;
47381;SDS011;33128;51.580;5.170;2023-02-27T14:37:18;231.73;;;216.18;;
47381;SDS011;33128;51.580;5.170;2023-02-27T14:39:48;236.05;;;220.15;;
47381;SDS011;33128;51.580;5.170;2023-02-27T14:45:13;139.52;;;130.73;;
47381;SDS011;33128;51.580;5.170;2023-02-27T14:47:43;31.27;;;29.42;;
47381;SDS011;33128;51.580;5.170;2023-02-27T14:52:58;158.20;;;148.43;;
47381;SDS011;33128;51.580;5.170;2023-02-27T14:55:26;137.65;;;128.43;;
47381;SDS011;33128;51.580;5.170;2023-02-27T14:58:07;137.85;;;129.45;;
47381;SDS011;33128;51.580;5.170;2023-02-27T15:06:23;592.75;;;548.22;;
47381;SDS011;33128;51.580;5.170;2023-02-27T15:08:56;501.85;;;465.42;;
47381;SDS011;33128;51.580;5.170;2023-02-27T15:11:23;117.43;;;110.15;;
47381;SDS011;33128;51.580;5.170;2023-02-27T15:13:55;527.05;;;486.80;;
47381;SDS011;33128;51.580;5.170;2023-02-27T15:19:02;149.18;;;139.48;;
47381;SDS011;33128;51.580;5.170;2023-02-27T15:21:37;468.10;;;435.25;;
47381;SDS011;33128;51.580;5.170;2023-02-27T15:24:05;172.48;;;161.45;;
47381;SDS011;33128;51.580;5.170;2023-02-27T15:26:46;127.13;;;119.18;;
47381;SDS011;33128;51.580;5.170;2023-02-27T15:29:15;153.60;;;144.27;;
47381;SDS011;33128;51.580;5.170;2023-02-27T15:31:47;189.82;;;177.55;;
47381;SDS011;33128;51.580;5.170;2023-02-27T15:34:13;420.50;;;389.83;;
47381;SDS011;33128;51.580;5.170;2023-02-27T15:36:47;152.20;;;142.93;;
47381;SDS011;33128;51.580;5.170;2023-02-27T15:39:20;601.05;;;556.55;;
47381;SDS011;33128;51.580;5.170;2023-02-27T15:41:49;191.10;;;178.75;;
47381;SDS011;33128;51.580;5.170;2023-02-27T15:44:19;563.15;;;519.50;;
47381;SDS011;33128;51.580;5.170;2023-02-27T15:46:55;19.33;;;18.23;;
47381;SDS011;33128;51.580;5.170;2023-02-27T15:49:23;372.50;;;342.30;;
47381;SDS011;33128;51.580;5.170;2023-02-27T15:51:59;16.17;;;15.38;;
47381;SDS011;33128;51.580;5.170;2023-02-27T15:54:35;12.18;;;11.68;;
47381;SDS011;33128;51.580;5.170;2023-02-27T15:57:06;12.32;;;11.73;;
47381;SDS011;33128;51.580;5.170;2023-02-27T15:59:34;155.50;;;145.60;;
47381;SDS011;33128;51.580;5.170;2023-02-27T16:02:04;141.07;;;132.70;;
47381;SDS011;33128;51.580;5.170;2023-02-27T16:04:37;146.20;;;137.40;;
47381;SDS011;33128;51.580;5.170;2023-02-27T16:07:06;33.15;;;31.33;;
47381;SDS011;33128;51.580;5.170;2023-02-27T16:09:39;12.60;;;12.10;;
47381;SDS011;33128;51.580;5.170;2023-02-27T16:12:27;13.52;;;12.80;;
47381;SDS011;33128;51.580;5.170;2023-02-27T16:20:35;13.65;;;12.82;;
47381;SDS011;33128;51.580;5.170;2023-02-27T16:26:00;13.52;;;12.73;;
47381;SDS011;33128;51.580;5.170;2023-02-27T16:31:35;12.13;;;11.63;;
47381;SDS011;33128;51.580;5.170;2023-02-27T16:36:42;12.43;;;11.93;;
47381;SDS011;33128;51.580;5.170;2023-02-27T16:39:22;12.98;;;12.32;;
47381;SDS011;33128;51.580;5.170;2023-02-27T16:41:50;14.68;;;13.65;;
47381;SDS011;33128;51.580;5.170;2023-02-27T16:44:17;21.10;;;19.30;;
47381;SDS011;33128;51.580;5.170;2023-02-27T16:46:43;13.45;;;12.73;;
47381;SDS011;33128;51.580;5.170;2023-02-27T16:49:17;16.58;;;15.45;;
47381;SDS011;33128;51.580;5.170;2023-02-27T16:51:45;13.93;;;13.00;;
47381;SDS011;33128;51.580;5.170;2023-02-27T16:54:10;15.02;;;14.13;;
47381;SDS011;33128;51.580;5.170;2023-02-27T16:56:40;13.88;;;12.93;;
47381;SDS011;33128;51.580;5.170;2023-02-27T16:59:25;12.70;;;12.00;;
47381;SDS011;33128;51.580;5.170;2023-02-27T17:01:52;13.13;;;12.43;;
47381;SDS011;33128;51.580;5.170;2023-02-27T17:04:17;13.20;;;12.50;;
47381;SDS011;33128;51.580;5.170;2023-02-27T17:06:43;21.00;;;19.55;;
47381;SDS011;33128;51.580;5.170;2023-02-27T17:09:09;14.80;;;14.10;;
47381;SDS011;33128;51.580;5.170;2023-02-27T17:11:35;16.80;;;15.75;;
47381;SDS011;33128;51.580;5.170;2023-02-27T17:14:01;14.07;;;13.38;;
47381;SDS011;33128;51.580;5.170;2023-02-27T17:16:27;14.07;;;13.27;;
47381;SDS011;33128;51.580;5.170;2023-02-27T17:18:52;16.27;;;15.05;;
47381;SDS011;33128;51.580;5.170;2023-02-27T17:21:18;18.42;;;16.83;;
47381;SDS011;33128;51.580;5.170;2023-02-27T17:23:44;14.63;;;13.80;;
47381;SDS011;33128;51.580;5.170;2023-02-27T17:26:10;18.50;;;17.23;;
47381;SDS011;33128;51.580;5.170;2023-02-27T17:28:36;12.60;;;12.07;;
47381;SDS011;33128;51.580;5.170;2023-02-27T17:31:09;12.45;;;11.85;;
47381;SDS011;33128;51.580;5.170;2023-02-27T17:33:35;13.35;;;12.75;;
47381;SDS011;33128;51.580;5.170;2023-02-27T17:36:02;12.60;;;12.02;;
47381;SDS011;33128;51.580;5.170;2023-02-27T17:38:29;14.20;;;13.45;;
47381;SDS011;33128;51.580;5.170;2023-02-27T17:40:58;13.90;;;13.10;;
47381;SDS011;33128;51.580;5.170;2023-02-27T17:43:26;13.57;;;12.85;;
47381;SDS011;33128;51.580;5.170;2023-02-27T17:45:52;14.27;;;13.38;;